Time;durP1;ratioP1;P1;durP2;ratioP2;P2;SDS_P1;SDS_P2;PMS_P1;PMS_P2;Temp;Humidity;BMP_temperature;BMP_pressure;BME280_temperature;BME280_humidity;BME280_pressure;Samples;Min_cycle;Max_cycle;Signal;HPM_P1;HPM_P2
2022/04/30 00:02:19;;;;;;;7.88;5.40;;;;;;;7.95;88.72;102795.56;6465230;23;20076;-69
2022/04/30 00:04:51;;;;;;;7.13;5.20;;;;;;;8.00;88.94;102792.78;6465171;23;20112;-71
2022/04/30 00:07:22;;;;;;;7.05;5.32;;;;;;;7.88;89.18;102796.75;6464318;23;20110;-69
2022/04/30 00:09:54;;;;;;;10.00;5.38;;;;;;;7.91;89.18;102794.00;6465245;23;20359;-69
2022/04/30 00:12:25;;;;;;;9.50;5.93;;;;;;;7.89;89.32;102795.84;6465776;23;20035;-70
2022/04/30 00:14:57;;;;;;;12.35;5.72;;;;;;;7.76;89.69;102792.88;6465273;23;20033;-68
2022/04/30 00:17:28;;;;;;;8.07;5.18;;;;;;;7.83;89.63;102790.88;6464830;23;20419;-70
2022/04/30 00:20:00;;;;;;;8.32;4.97;;;;;;;7.74;90.14;102796.50;6466703;23;20004;-68
2022/04/30 00:22:32;;;;;;;8.32;5.15;;;;;;;7.63;90.67;102778.66;6467044;23;20008;-69
2022/04/30 00:25:04;;;;;;;7.63;4.75;;;;;;;7.69;91.02;102795.81;6466406;23;20008;-71
2022/04/30 00:27:36;;;;;;;8.57;4.93;;;;;;;7.57;92.05;102795.41;6466386;23;20008;-68
2022/04/30 00:30:08;;;;;;;7.90;4.97;;;;;;;7.46;92.00;102781.09;6440418;23;20013;-69
2022/04/30 00:32:41;;;;;;;6.10;4.70;;;;;;;7.62;91.98;102797.84;6439731;23;20001;-68
2022/04/30 00:35:13;;;;;;;8.43;5.15;;;;;;;7.49;92.64;102792.25;6465604;23;20092;-69
2022/04/30 00:37:44;;;;;;;10.63;5.17;;;;;;;7.49;92.77;102792.25;6466308;23;20016;-67
2022/04/30 00:40:16;;;;;;;7.65;4.88;;;;;;;7.39;93.24;102783.13;6467382;23;19997;-68
2022/04/30 00:42:47;;;;;;;6.07;4.90;;;;;;;7.33;93.45;102788.59;6466304;23;20008;-70
2022/04/30 00:45:27;;;;;;;7.18;4.88;;;;;;;7.39;93.57;102790.13;6439267;23;20021;-70
2022/04/30 00:47:59;;;;;;;8.95;4.55;;;;;;;7.49;92.80;102784.44;6439518;23;20027;-69
2022/04/30 00:50:36;;;;;;;5.85;4.07;;;;;;;7.47;94.14;102785.44;6440202;23;20013;-70
2022/04/30 00:53:11;;;;;;;8.13;4.40;;;;;;;7.39;93.88;102777.91;6468546;23;20044;-69
2022/04/30 00:55:45;;;;;;;6.68;4.18;;;;;;;7.28;93.77;102782.72;6441187;23;20079;-69
2022/04/30 00:58:20;;;;;;;7.55;4.43;;;;;;;7.26;94.40;102774.09;6467793;23;20443;-69
2022/04/30 01:00:54;;;;;;;8.00;4.55;;;;;;;7.22;95.29;102775.97;6468530;23;20004;-70
2022/04/30 01:03:25;;;;;;;10.40;4.70;;;;;;;7.23;94.37;102776.81;6468124;23;20421;-68
2022/04/30 01:06:02;;;;;;;9.60;5.20;;;;;;;7.27;94.93;102765.34;6467491;23;20011;-69
2022/04/30 01:08:34;;;;;;;8.38;4.85;;;;;;;7.13;95.27;102775.50;6468879;23;20015;-68
2022/04/30 01:11:08;;;;;;;6.05;4.45;;;;;;;7.13;95.26;102780.72;6442199;23;20008;-69
2022/04/30 01:13:40;;;;;;;5.43;4.50;;;;;;;7.04;95.36;102777.53;6469402;23;20067;-68
2022/04/30 01:16:13;;;;;;;8.52;4.75;;;;;;;7.04;96.88;102776.69;6467044;23;20013;-68
2022/04/30 01:18:45;;;;;;;8.98;4.30;;;;;;;7.03;96.46;102773.25;6468024;23;20019;-68
2022/04/30 01:21:19;;;;;;;8.02;4.53;;;;;;;6.99;97.77;102771.66;6468470;23;20005;-68
2022/04/30 01:23:51;;;;;;;10.23;4.18;;;;;;;6.98;97.21;102772.59;6442569;23;20009;-69
2022/04/30 01:26:24;;;;;;;6.75;4.28;;;;;;;6.96;98.40;102776.16;6439057;23;20032;-69
2022/04/30 01:28:59;;;;;;;6.65;4.25;;;;;;;6.98;98.29;102769.97;6442121;23;20277;-71
2022/04/30 01:37:23;;;;;;;6.68;4.70;;;;;;;6.86;98.51;102762.63;6464126;23;20039;-69
2022/04/30 01:39:59;;;;;;;8.25;4.60;;;;;;;6.92;100.00;102769.34;6467173;23;20340;-69
2022/04/30 01:42:35;;;;;;;4.78;3.90;;;;;;;6.92;100.00;102761.53;6466941;23;20005;-68
2022/04/30 01:45:08;;;;;;;7.65;4.40;;;;;;;6.74;100.00;102763.09;6466889;23;20044;-69
2022/04/30 01:47:44;;;;;;;6.13;4.35;;;;;;;6.78;100.00;102762.94;6466897;23;20394;-68
2022/04/30 01:50:15;;;;;;;9.40;4.63;;;;;;;6.72;100.00;102760.56;6468139;23;20008;-68
2022/04/30 01:52:48;;;;;;;7.90;4.63;;;;;;;6.76;100.00;102758.69;6468899;23;20009;-69
2022/04/30 01:55:19;;;;;;;5.45;4.43;;;;;;;6.71;100.00;102761.47;6468301;23;20024;-69
2022/04/30 01:57:51;;;;;;;9.10;4.88;;;;;;;6.75;100.00;102754.38;6466204;23;20027;-69
2022/04/30 02:00:22;;;;;;;10.18;5.10;;;;;;;6.72;100.00;102757.94;6466650;23;20012;-70
2022/04/30 02:02:56;;;;;;;8.60;4.80;;;;;;;6.70;100.00;102748.47;6466571;23;20005;-70
2022/04/30 02:05:27;;;;;;;6.72;4.82;;;;;;;6.63;100.00;102747.88;6438853;23;20000;-70
2022/04/30 02:08:05;;;;;;;6.55;5.25;;;;;;;6.72;100.00;102749.28;6465642;23;20054;-70
2022/04/30 02:10:39;;;;;;;7.90;5.47;;;;;;;6.58;100.00;102747.19;6440549;23;20086;-70
2022/04/30 02:13:13;;;;;;;7.38;5.45;;;;;;;6.63;100.00;102747.00;6467036;23;20004;-68
2022/04/30 02:15:45;;;;;;;7.65;5.10;;;;;;;6.53;100.00;102747.38;6465480;23;20016;-71
2022/04/30 02:18:20;;;;;;;7.35;5.10;;;;;;;6.50;100.00;102747.47;6466723;23;20004;-69
2022/04/30 02:20:53;;;;;;;8.35;5.20;;;;;;;6.48;100.00;102741.50;6466257;23;20004;-69
2022/04/30 02:23:25;;;;;;;7.22;4.88;;;;;;;6.44;100.00;102737.31;6466246;23;20062;-71
2022/04/30 02:26:04;;;;;;;8.20;5.25;;;;;;;6.41;100.00;102736.56;6465056;23;20001;-69
2022/04/30 02:28:36;;;;;;;9.10;5.47;;;;;;;6.41;100.00;102741.78;6465671;23;20488;-69
2022/04/30 02:31:07;;;;;;;8.98;5.30;;;;;;;6.31;100.00;102731.69;6466559;23;20008;-69
2022/04/30 02:33:40;;;;;;;8.52;5.32;;;;;;;6.36;100.00;102736.72;6466475;23;20031;-68
2022/04/30 02:36:13;;;;;;;8.80;5.87;;;;;;;6.36;100.00;102726.31;6465210;23;20008;-71
2022/04/30 02:38:44;;;;;;;9.02;6.40;;;;;;;6.32;100.00;102728.16;6466826;23;20361;-69
2022/04/30 02:41:15;;;;;;;17.27;5.65;;;;;;;6.30;100.00;102731.75;6466860;23;20062;-68
2022/04/30 02:43:52;;;;;;;8.57;6.00;;;;;;;6.25;100.00;102736.25;6465972;23;20080;-69
2022/04/30 02:46:24;;;;;;;9.88;6.03;;;;;;;6.21;100.00;102729.47;6465643;23;20011;-70
2022/04/30 02:48:55;;;;;;;11.65;5.70;;;;;;;6.18;100.00;102727.00;6466928;23;20000;-70
2022/04/30 02:51:26;;;;;;;8.27;6.28;;;;;;;6.26;100.00;102722.38;6466440;23;20004;-70
2022/04/30 02:53:58;;;;;;;9.05;5.50;;;;;;;6.24;100.00;102724.16;6466186;23;20013;-70
2022/04/30 02:56:29;;;;;;;6.57;5.70;;;;;;;6.16;100.00;102719.22;6437652;23;20095;-69
2022/04/30 03:01:50;;;;;;;10.02;5.68;;;;;;;6.11;100.00;102731.56;6466623;23;20044;-70
2022/04/30 03:04:22;;;;;;;9.88;6.03;;;;;;;6.11;100.00;102730.72;6466550;23;20004;-70
2022/04/30 03:06:53;;;;;;;9.32;5.80;;;;;;;6.04;100.00;102730.94;6465323;23;20005;-71
2022/04/30 03:09:24;;;;;;;9.57;5.97;;;;;;;5.98;100.00;102725.09;6466932;23;20008;-69
2022/04/30 03:11:57;;;;;;;10.10;6.43;;;;;;;5.97;100.00;102729.44;6439822;23;20011;-70
2022/04/30 03:14:28;;;;;;;9.93;5.97;;;;;;;6.00;100.00;102726.75;6466587;23;20017;-68
2022/04/30 03:22:39;;;;;;;8.93;6.47;;;;;;;5.89;100.00;102725.41;6466551;23;20016;-68
2022/04/30 03:25:11;;;;;;;10.40;6.40;;;;;;;5.90;100.00;102725.31;6465798;23;20588;-69
2022/04/30 03:27:42;;;;;;;8.13;6.22;;;;;;;5.80;100.00;102719.63;6465691;23;20001;-68
2022/04/30 03:30:13;;;;;;;8.30;6.35;;;;;;;5.77;100.00;102711.91;6466533;23;20082;-68
2022/04/30 03:32:45;;;;;;;10.32;6.15;;;;;;;5.81;100.00;102710.91;6466091;23;20007;-69
2022/04/30 03:35:16;;;;;;;10.73;6.53;;;;;;;5.82;100.00;102712.59;6465406;23;20036;-69
2022/04/30 03:37:47;;;;;;;11.80;6.35;;;;;;;5.84;100.00;102710.78;6465159;23;20024;-69
2022/04/30 03:40:19;;;;;;;11.05;6.90;;;;;;;5.79;100.00;102707.50;6466195;23;20096;-69
2022/04/30 03:42:50;;;;;;;12.00;7.07;;;;;;;5.76;100.00;102704.19;6466741;23;20004;-69
2022/04/30 03:45:22;;;;;;;9.75;6.97;;;;;;;5.74;100.00;102703.38;6464438;23;20020;-69
2022/04/30 03:47:53;;;;;;;8.70;6.82;;;;;;;5.77;100.00;102704.09;6465232;23;20005;-69
2022/04/30 03:50:25;;;;;;;8.32;6.88;;;;;;;5.69;100.00;102705.28;6465753;23;20504;-69
2022/04/30 03:52:56;;;;;;;10.52;7.25;;;;;;;5.69;100.00;102702.69;6465957;23;20503;-69
2022/04/30 03:55:27;;;;;;;11.93;7.15;;;;;;;5.66;100.00;102706.22;6465334;23;20008;-69
2022/04/30 03:57:59;;;;;;;13.32;8.02;;;;;;;5.61;100.00;102703.78;6464525;23;20068;-69
2022/04/30 04:00:30;;;;;;;12.05;7.18;;;;;;;5.54;100.00;102706.66;6465502;23;20036;-69
2022/04/30 04:03:02;;;;;;;11.65;7.28;;;;;;;5.54;100.00;102709.25;6463993;23;20008;-69
2022/04/30 04:05:34;;;;;;;8.65;7.25;;;;;;;5.48;100.00;102707.69;6463504;23;20035;-69
2022/04/30 04:08:11;;;;;;;8.95;7.13;;;;;;;5.48;100.00;102705.09;6465221;23;20000;-69
2022/04/30 04:10:43;;;;;;;13.98;7.30;;;;;;;5.51;100.00;102709.34;6465707;23;20321;-69
2022/04/30 04:18:55;;;;;;;10.80;7.10;;;;;;;5.45;100.00;102712.16;6465094;23;20074;-69
2022/04/30 04:21:26;;;;;;;12.63;7.60;;;;;;;5.45;100.00;102712.16;6439479;23;20004;-70
2022/04/30 04:26:55;;;;;;;9.55;7.03;;;;;;;5.45;100.00;102702.59;6431195;23;20476;-69
2022/04/30 04:29:26;;;;;;;11.00;7.45;;;;;;;5.46;100.00;102716.47;6468118;23;20008;-69
2022/04/30 04:31:58;;;;;;;11.95;8.07;;;;;;;5.40;100.00;102709.72;6468233;23;20016;-69
2022/04/30 04:34:29;;;;;;;12.13;7.15;;;;;;;5.41;100.00;102720.94;6466973;23;20008;-69
2022/04/30 04:37:01;;;;;;;10.13;7.50;;;;;;;5.40;100.00;102714.06;6466456;23;20004;-69
2022/04/30 04:39:32;;;;;;;8.10;6.78;;;;;;;5.42;100.00;102720.91;6468157;23;20008;-70
2022/04/30 04:42:04;;;;;;;11.93;8.00;;;;;;;5.43;100.00;102720.00;6467343;23;20447;-69
2022/04/30 04:44:35;;;;;;;13.25;7.55;;;;;;;5.30;100.00;102706.56;6439834;23;20043;-70
2022/04/30 04:47:07;;;;;;;13.93;7.85;;;;;;;5.31;100.00;102718.66;6440228;23;20008;-69
2022/04/30 04:49:39;;;;;;;11.63;7.13;;;;;;;5.38;100.00;102727.13;6467736;23;20004;-68
2022/04/30 04:52:10;;;;;;;11.38;7.55;;;;;;;5.35;100.00;102729.81;6467447;23;20009;-69
2022/04/30 04:54:41;;;;;;;13.13;7.95;;;;;;;5.46;100.00;102739.88;6467663;23;20008;-69
2022/04/30 04:57:13;;;;;;;9.90;7.38;;;;;;;5.41;100.00;102732.19;6466365;23;20012;-69
2022/04/30 04:59:44;;;;;;;11.65;8.10;;;;;;;5.55;100.00;102737.78;6467676;23;20020;-69
2022/04/30 05:02:16;;;;;;;9.95;7.68;;;;;;;5.59;100.00;102746.34;6467851;23;20052;-68
2022/04/30 05:04:47;;;;;;;11.30;8.05;;;;;;;5.55;100.00;102742.16;6468040;23;20139;-67
2022/04/30 05:07:19;;;;;;;10.70;7.93;;;;;;;5.59;100.00;102746.34;6465977;23;20004;-69
2022/04/30 05:09:50;;;;;;;11.25;8.57;;;;;;;5.58;100.00;102750.69;6468149;23;20031;-69
2022/04/30 05:12:21;;;;;;;12.15;8.80;;;;;;;5.59;100.00;102752.38;6468170;23;20138;-68
2022/04/30 05:14:53;;;;;;;10.77;8.38;;;;;;;5.66;100.00;102750.44;6467462;23;20028;-67
2022/04/30 05:17:24;;;;;;;10.70;8.57;;;;;;;5.69;100.00;102752.09;6466719;23;20332;-67
2022/04/30 05:19:55;;;;;;;13.02;9.13;;;;;;;5.73;100.00;102744.13;6467573;23;20005;-68
2022/04/30 05:22:27;;;;;;;11.68;9.18;;;;;;;5.72;100.00;102745.03;6467622;23;20012;-69
2022/04/30 05:24:58;;;;;;;11.18;9.38;;;;;;;5.73;100.00;102738.94;6466955;23;20084;-67
2022/04/30 05:27:30;;;;;;;13.73;9.85;;;;;;;5.77;100.00;102745.72;6466730;23;20054;-67
2022/04/30 05:30:01;;;;;;;19.83;9.80;;;;;;;5.94;100.00;102752.13;6441222;23;20439;-69
2022/04/30 05:32:32;;;;;;;16.48;9.20;;;;;;;5.89;100.00;102749.66;6467167;23;20000;-67
2022/04/30 05:35:04;;;;;;;13.73;9.48;;;;;;;5.97;100.00;102758.06;6466636;23;20039;-68
2022/04/30 05:37:35;;;;;;;12.85;9.57;;;;;;;5.91;100.00;102744.38;6464521;23;20062;-69
2022/04/30 05:40:07;;;;;;;12.32;10.00;;;;;;;5.99;100.00;102750.22;6466639;23;20008;-70
2022/04/30 05:42:39;;;;;;;10.38;8.35;;;;;;;6.05;100.00;102750.00;6466732;23;20016;-69
2022/04/30 05:45:10;;;;;;;12.82;9.00;;;;;;;6.08;100.00;102750.72;6466869;23;20012;-69
2022/04/30 05:47:41;;;;;;;12.60;9.45;;;;;;;6.08;100.00;102749.88;6439292;23;20479;-70
2022/04/30 05:50:12;;;;;;;15.43;10.23;;;;;;;6.18;100.00;102759.06;6466944;23;20008;-70
2022/04/30 05:52:44;;;;;;;17.67;10.00;;;;;;;6.24;100.00;102760.59;6464467;23;20036;-69
2022/04/30 05:55:15;;;;;;;12.27;9.38;;;;;;;6.28;100.00;102764.78;6465210;23;19997;-70
2022/04/30 05:57:47;;;;;;;12.15;9.38;;;;;;;6.34;100.00;102760.22;6464103;23;20340;-69
2022/04/30 06:00:18;;;;;;;13.70;9.50;;;;;;;6.44;100.00;102759.88;6465138;23;20004;-69
2022/04/30 06:02:50;;;;;;;13.98;9.52;;;;;;;6.47;100.00;102759.75;6434055;23;20454;-70
2022/04/30 06:05:22;;;;;;;12.32;9.60;;;;;;;6.55;100.00;102761.19;6466090;23;20087;-70
2022/04/30 06:07:53;;;;;;;13.23;9.75;;;;;;;6.62;100.00;102760.94;6465780;23;20455;-69
2022/04/30 06:10:25;;;;;;;13.10;9.35;;;;;;;6.70;100.00;102764.94;6466936;23;20005;-69
2022/04/30 06:12:57;;;;;;;13.15;9.13;;;;;;;6.77;100.00;102765.56;6467082;23;20508;-70
2022/04/30 06:15:28;;;;;;;12.43;9.63;;;;;;;6.85;100.00;102763.53;6465913;23;20018;-70
2022/04/30 06:18:00;;;;;;;12.40;9.10;;;;;;;6.92;100.00;102767.59;6465860;23;20381;-70
2022/04/30 06:20:31;;;;;;;15.18;9.45;;;;;;;7.00;100.00;102760.31;6466549;23;20008;-70
2022/04/30 06:23:02;;;;;;;14.27;9.82;;;;;;;7.20;100.00;102769.13;6466999;23;20015;-70
2022/04/30 06:25:35;;;;;;;13.75;8.98;;;;;;;7.31;100.00;102761.72;6466768;23;20007;-70
2022/04/30 06:28:06;;;;;;;11.77;9.93;;;;;;;7.46;100.00;102763.72;6466891;23;20491;-70
2022/04/30 06:30:39;;;;;;;12.60;9.02;;;;;;;7.51;100.00;102764.38;6467388;23;19996;-70
2022/04/30 06:33:11;;;;;;;12.35;8.82;;;;;;;7.67;100.00;102767.19;6465701;23;20007;-70
2022/04/30 06:35:43;;;;;;;14.48;9.32;;;;;;;7.77;100.00;102770.28;6465646;23;20004;-70
2022/04/30 06:38:15;;;;;;;12.00;8.70;;;;;;;7.82;100.00;102765.69;6466889;23;20440;-70
2022/04/30 06:40:47;;;;;;;12.55;9.07;;;;;;;8.05;100.00;102759.50;6466735;23;20005;-70
2022/04/30 06:43:19;;;;;;;10.00;8.60;;;;;;;8.13;100.00;102762.59;6465588;23;20009;-70
2022/04/30 06:45:50;;;;;;;14.75;9.23;;;;;;;8.24;100.00;102759.53;6465289;23;20538;-70
2022/04/30 06:48:21;;;;;;;13.13;9.07;;;;;;;8.31;100.00;102750.50;6439307;23;20013;-70
2022/04/30 06:50:53;;;;;;;11.85;8.80;;;;;;;8.44;100.00;102751.66;6465592;23;20428;-70
2022/04/30 06:59:09;;;;;;;12.38;8.55;;;;;;;8.79;100.00;102762.28;6466145;23;20009;-70
2022/04/30 07:01:51;;;;;;;10.90;8.90;;;;;;;9.01;100.00;102757.72;6467462;23;20004;-70
2022/04/30 07:04:24;;;;;;;11.93;8.80;;;;;;;9.19;100.00;102758.63;6464871;23;20455;-70
2022/04/30 07:06:55;;;;;;;13.57;8.35;;;;;;;9.31;100.00;102757.16;6465497;23;20004;-70
2022/04/30 07:09:33;;;;;;;12.20;7.15;;;;;;;9.50;100.00;102757.13;6466748;23;20333;-70
2022/04/30 07:12:07;;;;;;;10.27;7.32;;;;;;;9.61;100.00;102761.81;6466511;23;20005;-70
2022/04/30 07:14:40;;;;;;;;;;;;;;;10.12;100.00;102757.47;6465985;23;20017;-70
2022/04/30 07:17:13;;;;;;;10.93;6.53;;;;;;;9.98;100.00;102758.19;6465848;23;19908;-71
2022/04/30 07:19:44;;;;;;;9.13;6.22;;;;;;;10.12;100.00;102760.94;6466271;23;20027;-70
2022/04/30 07:22:15;;;;;;;10.88;6.70;;;;;;;10.26;99.50;102767.25;6466457;23;20040;-70
2022/04/30 07:24:47;;;;;;;10.40;7.03;;;;;;;10.40;98.11;102759.50;6465525;23;20514;-70
2022/04/30 07:27:18;;;;;;;9.27;6.25;;;;;;;10.45;97.18;102753.09;6465472;23;20104;-70
2022/04/30 07:29:49;;;;;;;9.68;6.45;;;;;;;10.61;97.08;102750.50;6466565;23;20028;-70
2022/04/30 07:32:21;;;;;;;7.88;6.00;;;;;;;10.80;93.73;102760.81;6466396;23;20075;-71
2022/04/30 07:34:53;;;;;;;8.40;6.07;;;;;;;11.07;94.37;102761.06;6466111;23;20383;-70
2022/04/30 07:37:25;;;;;;;7.28;5.80;;;;;;;11.22;92.27;102754.09;6464482;23;20004;-70
2022/04/30 07:39:56;;;;;;;11.00;5.65;;;;;;;11.38;89.60;102754.91;6466782;23;20008;-71
2022/04/30 07:42:27;;;;;;;9.40;5.45;;;;;;;11.59;86.74;102754.56;6466473;23;20547;-70
2022/04/30 07:44:59;;;;;;;7.47;5.47;;;;;;;11.87;88.77;102746.78;6465139;23;20017;-71
2022/04/30 07:47:30;;;;;;;9.20;5.80;;;;;;;12.16;84.91;102747.66;6465662;23;20028;-70
2022/04/30 07:50:04;;;;;;;7.07;5.60;;;;;;;12.40;83.56;102742.66;6466467;23;20005;-71
2022/04/30 07:52:35;;;;;;;9.00;5.50;;;;;;;12.09;79.70;102748.97;6466375;23;20001;-70
2022/04/30 07:55:07;;;;;;;6.85;4.90;;;;;;;12.05;79.36;102741.38;6466091;23;20008;-71
2022/04/30 07:57:38;;;;;;;6.18;5.03;;;;;;;12.13;79.63;102739.97;6464963;23;20043;-71
2022/04/30 08:00:11;;;;;;;7.93;4.97;;;;;;;11.96;78.47;102744.53;6466878;23;20000;-70
2022/04/30 08:02:43;;;;;;;;;;;;;;;12.56;80.90;102750.44;6468656;23;20009;-71
2022/04/30 08:05:14;;;;;;;9.65;5.35;;;;;;;12.07;80.14;102740.31;6468394;23;19904;-70
2022/04/30 08:07:45;;;;;;;8.57;4.50;;;;;;;12.06;78.88;102748.31;6440591;23;20539;-71
2022/04/30 08:10:17;;;;;;;8.88;4.55;;;;;;;12.03;78.93;102732.72;6468122;23;20443;-70
2022/04/30 08:12:56;;;;;;;7.15;4.43;;;;;;;12.16;79.24;102731.06;6468103;23;20400;-71
2022/04/30 08:15:27;;;;;;;8.45;4.93;;;;;;;11.88;78.98;102735.34;6468025;23;20005;-70
2022/04/30 08:17:58;;;;;;;6.03;4.13;;;;;;;11.82;76.72;102738.31;6466392;23;20043;-71
2022/04/30 08:20:30;;;;;;;9.73;4.97;;;;;;;11.93;80.76;102738.56;6468059;23;20011;-71
2022/04/30 08:23:03;;;;;;;9.07;4.25;;;;;;;11.93;78.36;102735.06;6468026;23;20012;-71
2022/04/30 08:25:35;;;;;;;10.07;5.05;;;;;;;11.95;76.94;102738.44;6467194;23;20019;-70
2022/04/30 08:28:06;;;;;;;9.35;4.18;;;;;;;11.90;77.96;102738.72;6467024;23;20348;-71
2022/04/30 08:30:37;;;;;;;10.13;4.82;;;;;;;11.91;78.75;102735.16;6468191;23;20001;-71
2022/04/30 08:33:09;;;;;;;7.00;4.18;;;;;;;11.91;77.41;102740.41;6468102;23;20062;-70
2022/04/30 08:35:41;;;;;;;5.68;4.22;;;;;;;11.84;76.93;102733.00;6467781;23;20029;-71
2022/04/30 08:38:12;;;;;;;6.55;3.95;;;;;;;11.83;77.57;102733.91;6466951;23;20005;-71
2022/04/30 08:40:44;;;;;;;7.40;4.45;;;;;;;11.85;79.08;102735.53;6468438;23;20091;-70
2022/04/30 08:43:16;;;;;;;6.95;4.40;;;;;;;11.77;77.15;102732.47;6467538;23;20008;-71
2022/04/30 08:45:48;;;;;;;6.32;4.53;;;;;;;11.72;77.10;102729.28;6466439;23;20020;-70
2022/04/30 08:48:19;;;;;;;6.25;4.20;;;;;;;11.70;76.98;102715.41;6466511;23;20019;-70
2022/04/30 08:50:50;;;;;;;8.40;4.28;;;;;;;11.67;78.30;102720.84;6467643;23;20114;-71
2022/04/30 08:53:21;;;;;;;6.38;4.50;;;;;;;11.76;77.94;102724.72;6468000;23;20005;-71
2022/04/30 08:55:53;;;;;;;8.68;4.32;;;;;;;11.71;76.11;102722.34;6466857;23;20004;-71
2022/04/30 08:58:24;;;;;;;7.40;4.53;;;;;;;11.76;77.50;102719.44;6465670;23;20000;-71
2022/04/30 09:00:55;;;;;;;6.82;5.10;;;;;;;11.95;78.54;102721.84;6467048;23;20075;-71
2022/04/30 09:03:27;;;;;;;6.90;4.55;;;;;;;11.97;77.24;102725.22;6466542;23;20722;-71
2022/04/30 09:05:59;;;;;;;8.80;5.22;;;;;;;11.96;77.81;102726.16;6466526;23;20290;-71
2022/04/30 09:08:30;;;;;;;7.93;5.43;;;;;;;12.10;78.31;102720.91;6467070;23;20028;-70
2022/04/30 09:11:08;;;;;;;7.13;4.60;;;;;;;12.13;77.57;102723.34;6467173;23;20011;-72
2022/04/30 09:13:44;;;;;;;7.35;4.32;;;;;;;12.26;76.59;102720.81;6465172;23;20031;-71
2022/04/30 09:16:23;;;;;;;7.45;4.30;;;;;;;12.27;75.51;102717.22;6466319;23;20004;-71
2022/04/30 09:19:02;;;;;;;5.50;4.03;;;;;;;12.24;75.55;102715.66;6467571;23;20439;-71
2022/04/30 09:21:34;;;;;;;6.80;4.00;;;;;;;12.22;74.95;102712.28;6467289;23;20004;-71
2022/04/30 09:24:06;;;;;;;6.15;4.55;;;;;;;12.29;73.92;102713.59;6466410;23;20004;-70
2022/04/30 09:26:41;;;;;;;7.13;4.28;;;;;;;12.37;73.33;102713.09;6466479;23;20016;-70
2022/04/30 09:29:20;;;;;;;9.45;4.05;;;;;;;12.28;73.75;102711.91;6467522;23;20019;-70
2022/04/30 09:31:53;;;;;;;5.90;4.07;;;;;;;12.23;71.88;102708.69;6467003;23;20008;-71
2022/04/30 09:40:27;;;;;;;7.50;4.85;;;;;;;12.50;73.50;102706.16;6466935;23;20016;-71
2022/04/30 09:43:00;;;;;;;5.60;4.43;;;;;;;12.29;69.36;102696.97;6465901;23;20004;-71
2022/04/30 09:45:33;;;;;;;6.75;4.25;;;;;;;12.54;73.05;102701.50;6465982;23;20020;-71
2022/04/30 09:53:56;;;;;;;7.25;4.60;;;;;;;12.47;67.80;102695.81;6466272;23;20008;-71
2022/04/30 09:54:00;;;;;;;8.73;4.45;;;;;;;12.81;67.50;102691.88;6467173;23;20397;-71
2022/04/30 09:56:41;;;;;;;5.45;3.60;;;;;;;13.04;65.67;102684.28;6465966;23;20368;-70
2022/04/30 09:59:14;;;;;;;7.82;4.43;;;;;;;13.13;64.23;102689.75;6466708;23;20031;-70
2022/04/30 10:01:49;;;;;;;6.70;4.18;;;;;;;13.05;64.61;102680.69;6466826;23;20348;-71
2022/04/30 10:04:21;;;;;;;6.00;3.85;;;;;;;13.13;62.17;102676.59;6465888;23;20008;-70
2022/04/30 10:06:53;;;;;;;6.22;3.67;;;;;;;13.11;61.33;102675.88;6465355;23;20005;-71
2022/04/30 10:09:36;;;;;;;9.13;3.53;;;;;;;13.22;60.18;102674.28;6466580;23;20017;-71
2022/04/30 10:12:19;;;;;;;4.35;3.00;;;;;;;13.32;60.16;102678.03;6465148;23;20038;-71
2022/04/30 10:14:54;;;;;;;4.75;3.25;;;;;;;13.32;61.16;102675.41;6466351;23;20014;-71
2022/04/30 10:17:29;;;;;;;5.88;3.67;;;;;;;13.42;59.37;102662.47;6463219;23;20008;-71
2022/04/30 10:20:15;;;;;;;4.55;3.63;;;;;;;13.61;59.85;102669.00;6459920;23;20004;-71
2022/04/30 10:22:54;;;;;;;6.38;3.50;;;;;;;13.53;58.72;102649.41;6464543;23;20000;-71
2022/04/30 10:25:42;;;;;;;6.45;3.78;;;;;;;13.59;58.82;102664.78;6466661;23;20092;-71
2022/04/30 10:28:17;;;;;;;6.68;3.65;;;;;;;13.65;57.33;102660.91;6466144;23;20051;-71
2022/04/30 10:30:59;;;;;;;6.15;3.00;;;;;;;13.77;57.34;102650.34;6467214;23;20004;-71
2022/04/30 10:33:31;;;;;;;5.35;3.10;;;;;;;13.62;54.51;102659.31;6466597;23;20004;-71
2022/04/30 10:36:10;;;;;;;4.65;2.92;;;;;;;13.76;55.76;102655.72;6465763;23;20012;-71
2022/04/30 10:38:44;;;;;;;6.00;2.92;;;;;;;13.66;52.51;102654.66;6463548;23;20040;-71
2022/04/30 10:41:15;;;;;;;6.47;3.20;;;;;;;13.71;52.72;102653.38;6464012;23;20115;-71
2022/04/30 10:43:47;;;;;;;6.70;3.05;;;;;;;13.63;53.43;102646.00;6463570;23;20000;-70
2022/04/30 10:46:21;;;;;;;6.38;2.67;;;;;;;13.66;52.68;102649.41;6462502;23;20100;-71
2022/04/30 10:48:53;;;;;;;6.65;3.10;;;;;;;13.91;54.25;102640.66;6466555;23;20028;-72
2022/04/30 10:51:37;;;;;;;5.07;3.22;;;;;;;14.39;54.79;102632.81;6439720;23;20019;-69
2022/04/30 10:54:16;;;;;;;6.55;3.03;;;;;;;14.72;52.19;102617.19;6464888;23;20014;-70
2022/04/30 10:56:58;;;;;;;4.43;2.90;;;;;;;14.93;52.27;102625.31;6464363;23;20005;-69
2022/04/30 10:59:29;;;;;;;7.57;3.30;;;;;;;14.96;48.54;102622.41;6465075;23;20027;-68
2022/04/30 11:02:01;;;;;;;5.30;2.55;;;;;;;15.06;46.00;102619.94;6465239;23;20467;-69
2022/04/30 11:04:34;;;;;;;3.90;2.30;;;;;;;15.00;45.11;102615.97;6462361;23;20009;-73
2022/04/30 11:07:05;;;;;;;4.43;2.47;;;;;;;15.20;47.78;102609.16;6463144;23;20036;-69
2022/04/30 11:09:45;;;;;;;4.68;3.05;;;;;;;15.08;46.58;102610.94;6460880;23;20471;-70
2022/04/30 11:12:16;;;;;;;3.88;2.78;;;;;;;15.13;46.63;102605.31;6464344;23;20034;-71
2022/04/30 11:14:48;;;;;;;5.00;2.65;;;;;;;15.41;47.07;102600.53;6465457;23;20466;-71
2022/04/30 11:17:20;;;;;;;4.60;2.70;;;;;;;15.54;46.48;102598.66;6464680;23;20020;-71
2022/04/30 11:19:52;;;;;;;5.03;2.60;;;;;;;15.66;45.98;102595.06;6464923;23;20035;-71
2022/04/30 11:22:23;;;;;;;5.18;3.25;;;;;;;15.73;45.22;102596.28;6464407;23;19997;-71
2022/04/30 11:24:57;;;;;;;4.30;2.80;;;;;;;15.79;45.69;102592.28;6438212;23;20463;-72
2022/04/30 11:27:31;;;;;;;4.68;2.63;;;;;;;15.96;44.13;102585.69;6465867;23;20013;-71
2022/04/30 11:30:04;;;;;;;3.75;2.47;;;;;;;16.34;43.32;102582.56;6465854;23;20008;-72
2022/04/30 11:32:35;;;;;;;6.10;2.90;;;;;;;16.38;41.56;102585.81;6466664;23;20001;-71
2022/04/30 11:35:07;;;;;;;4.65;2.40;;;;;;;16.54;40.07;102580.94;6465883;23;20381;-71
2022/04/30 11:37:40;;;;;;;6.05;2.85;;;;;;;16.94;39.58;102575.84;6465555;23;20004;-72
2022/04/30 11:40:12;;;;;;;4.47;2.22;;;;;;;17.07;38.87;102569.50;6466322;23;20032;-72
2022/04/30 11:42:53;;;;;;;4.47;3.33;;;;;;;16.61;40.18;102563.59;6465617;23;20008;-70
2022/04/30 11:45:29;;;;;;;5.25;2.97;;;;;;;16.56;40.69;102578.19;6465358;23;20024;-72
2022/04/30 11:48:03;;;;;;;3.88;2.80;;;;;;;16.16;42.13;102582.25;6464653;23;20040;-72
2022/04/30 11:50:40;;;;;;;4.72;3.38;;;;;;;15.85;44.15;102575.97;6440014;23;20399;-72
2022/04/30 11:53:11;;;;;;;8.82;4.35;;;;;;;15.39;45.66;102576.91;6466777;23;20004;-72
2022/04/30 11:55:43;;;;;;;6.53;4.15;;;;;;;15.01;48.44;102580.69;6461634;23;20004;-73
2022/04/30 11:58:14;;;;;;;8.32;4.60;;;;;;;14.80;49.51;102577.03;6462950;23;20032;-72
2022/04/30 12:00:45;;;;;;;8.05;4.63;;;;;;;14.59;51.59;102579.50;6464569;23;20062;-70
2022/04/30 12:03:25;;;;;;;8.32;4.50;;;;;;;14.75;52.35;102581.81;6458272;23;20000;-72
2022/04/30 12:05:57;;;;;;;9.20;4.25;;;;;;;14.54;51.45;102573.69;6461752;23;20360;-71
2022/04/30 12:08:29;;;;;;;8.27;4.43;;;;;;;14.61;52.66;102577.56;6461021;23;20013;-72
2022/04/30 12:11:00;;;;;;;7.03;4.15;;;;;;;14.38;52.20;102567.84;6461322;23;20016;-72
2022/04/30 12:13:32;;;;;;;7.00;4.65;;;;;;;14.22;53.12;102579.50;6461509;23;20009;-72
2022/04/30 12:16:05;;;;;;;5.38;4.43;;;;;;;14.17;53.06;102573.75;6459577;23;20005;-68
2022/04/30 12:24:41;;;;;;;7.43;4.60;;;;;;;13.87;53.65;102575.00;6394583;23;20445;-71
2022/04/30 12:27:21;;;;;;;7.68;4.38;;;;;;;13.99;53.40;102573.25;6439635;23;20395;-72
2022/04/30 12:30:12;;;;;;;8.93;4.22;;;;;;;14.02;53.82;102577.47;6462910;23;20070;-71
2022/04/30 12:33:00;;;;;;;6.90;4.20;;;;;;;13.97;53.72;102571.69;6465357;23;20001;-71
2022/04/30 12:35:38;;;;;;;8.05;4.13;;;;;;;13.82;54.67;102566.53;6462370;23;20600;-72